Terminal Aerodrome Forecast
Issued by NWS Austin/San Antonio, TX

Home | Current Version | Previous Version | Text Only | Print | Product List | Glossary On
Versions: 1 2 3 4 5 6 7 8 9 10 11 12 13 14 15 16 17 18 19 20 21 22 23 24
642
FTUS44 KEWX 221945 AAA
TAFDRT
TAF AMD
KDRT 221945Z 2220/2318 13012G22KT P6SM SCT050
     FM222200 13010KT P6SM VCTS SCT050CB
     FM230200 10010KT P6SM BKN050
     FM230800 10009KT P6SM BKN015
     FM231500 12010KT P6SM SCT025 BKN040=

USA.gov is the U.S. government's official web portal to all federal, state and local government web resources and services.